Time;durP1;ratioP1;P1;durP2;ratioP2;P2;SDS_P1;SDS_P2;PMS_P1;PMS_P2;Temp;Humidity;BMP_temperature;BMP_pressure;BME280_temperature;BME280_humidity;BME280_pressure;Samples;Min_cycle;Max_cycle;Signal;HPM_P1;HPM_P2
2023/04/20 00:01:12;;;;;;;6.13;5.60;;;;;;;7.55;100.00;99375.19;5021057;28;20258;-84
2023/04/20 00:03:44;;;;;;;6.33;5.50;;;;;;;7.63;100.00;99369.63;5026295;28;20250;-83
2023/04/20 00:06:12;;;;;;;6.37;5.77;;;;;;;7.58;100.00;99372.09;5055112;28;20186;-83
2023/04/20 00:08:39;;;;;;;6.43;5.83;;;;;;;7.57;100.00;99367.78;5035266;28;20208;-83
2023/04/20 00:11:10;;;;;;;7.23;5.70;;;;;;;7.49;100.00;99364.31;5043991;28;20183;-83
2023/04/20 00:13:37;;;;;;;5.87;5.27;;;;;;;7.52;100.00;99350.56;5039428;28;20204;-83
2023/04/20 00:16:06;;;;;;;6.33;5.73;;;;;;;7.44;100.00;99353.44;5002746;28;20230;-82
2023/04/20 00:18:32;;;;;;;6.20;5.60;;;;;;;7.53;100.00;99349.53;5022047;28;20202;-83
2023/04/20 00:20:59;;;;;;;6.70;5.70;;;;;;;7.55;100.00;99348.53;5038728;28;20197;-82
2023/04/20 00:23:26;;;;;;;6.00;5.40;;;;;;;7.59;100.00;99352.41;5036621;28;20225;-83
2023/04/20 00:25:53;;;;;;;6.50;5.90;;;;;;;7.51;100.00;99337.47;5033076;28;20193;-83
2023/04/20 00:28:20;;;;;;;7.27;6.57;;;;;;;7.52;100.00;99353.22;5026427;28;20202;-83
2023/04/20 00:30:47;;;;;;;6.97;6.33;;;;;;;7.57;100.00;99347.28;5036188;28;20206;-83
2023/04/20 00:33:14;;;;;;;7.17;6.03;;;;;;;7.39;100.00;99339.91;5046521;28;20216;-83
2023/04/20 00:35:43;;;;;;;6.23;5.63;;;;;;;7.50;100.00;99341.16;5022279;28;20192;-84
2023/04/20 00:38:12;;;;;;;6.40;5.80;;;;;;;7.40;100.00;99343.41;5040364;28;20203;-83
2023/04/20 00:40:43;;;;;;;7.17;6.47;;;;;;;7.47;100.00;99345.03;5040503;28;20163;-84
2023/04/20 00:43:15;;;;;;;6.90;6.20;;;;;;;7.33;100.00;99345.25;5024596;28;20178;-84
2023/04/20 00:45:47;;;;;;;6.63;6.00;;;;;;;7.39;100.00;99337.25;5022579;28;20215;-82
2023/04/20 00:48:18;;;;;;;8.03;6.30;;;;;;;7.35;100.00;99332.53;5040139;28;20186;-83
2023/04/20 00:50:45;;;;;;;6.50;5.70;;;;;;;7.36;100.00;99340.34;5044718;28;20199;-83
2023/04/20 00:53:13;;;;;;;6.60;6.00;;;;;;;7.32;100.00;99341.78;5034836;28;20186;-83
2023/04/20 00:55:42;;;;;;;6.90;6.23;;;;;;;7.30;100.00;99338.50;5020622;28;20190;-83
2023/04/20 00:58:11;;;;;;;6.93;6.23;;;;;;;7.29;100.00;99336.84;5022457;28;20225;-82
2023/04/20 01:00:39;;;;;;;6.67;6.07;;;;;;;7.28;100.00;99337.06;5038337;28;20200;-82
2023/04/20 01:03:06;;;;;;;6.73;5.90;;;;;;;7.42;100.00;99336.84;5027639;28;20231;-83
2023/04/20 01:05:34;;;;;;;7.03;6.37;;;;;;;7.35;100.00;99327.22;5026434;28;20300;-83
2023/04/20 01:08:06;;;;;;;9.00;7.67;;;;;;;7.49;100.00;99335.00;5048705;28;20241;-83
2023/04/20 01:10:36;;;;;;;7.83;7.03;;;;;;;7.45;100.00;99324.94;5039009;28;20163;-84
2023/04/20 01:13:05;;;;;;;8.87;7.97;;;;;;;7.60;100.00;99336.22;5037740;28;20183;-83
2023/04/20 01:15:34;;;;;;;8.63;7.67;;;;;;;7.51;100.00;99335.59;5037399;28;20198;-83
2023/04/20 01:18:02;;;;;;;8.83;7.93;;;;;;;7.48;100.00;99330.69;5039667;28;20214;-83
2023/04/20 01:20:29;;;;;;;9.27;8.27;;;;;;;7.36;100.00;99327.03;5052071;28;20191;-83
2023/04/20 01:22:57;;;;;;;8.67;7.77;;;;;;;7.41;100.00;99323.72;5036787;28;20198;-84
2023/04/20 01:25:26;;;;;;;8.67;7.77;;;;;;;7.50;100.00;99330.50;5039288;28;20222;-84
2023/04/20 01:27:55;;;;;;;8.37;7.57;;;;;;;7.62;100.00;99322.66;5038035;28;20171;-84
2023/04/20 01:30:30;;;;;;;9.40;7.87;;;;;;;7.56;100.00;99328.84;5037405;28;20186;-83
2023/04/20 01:32:57;;;;;;;9.03;8.17;;;;;;;7.55;100.00;99329.88;5034186;28;20271;-82
2023/04/20 01:35:25;;;;;;;8.90;8.00;;;;;;;7.55;100.00;99327.19;4999384;28;20259;-82
2023/04/20 01:37:52;;;;;;;8.63;7.73;;;;;;;7.47;100.00;99326.38;5025027;28;20206;-83
2023/04/20 01:40:19;;;;;;;8.73;7.93;;;;;;;7.49;100.00;99324.34;5019409;28;20199;-83
2023/04/20 01:42:52;;;;;;;9.30;7.97;;;;;;;7.48;100.00;99328.03;5032682;28;20191;-81
2023/04/20 01:45:21;;;;;;;8.53;7.70;;;;;;;7.41;100.00;99319.22;4999090;28;20198;-83
2023/04/20 01:47:49;;;;;;;9.50;8.60;;;;;;;7.42;100.00;99320.84;5047384;28;20218;-82
2023/04/20 01:50:16;;;;;;;8.40;7.60;;;;;;;7.44;100.00;99313.47;5040329;28;20171;-83
2023/04/20 01:52:45;;;;;;;9.00;8.13;;;;;;;7.50;100.00;99312.66;5009987;28;20284;-83
2023/04/20 01:55:11;;;;;;;9.33;8.43;;;;;;;7.50;100.00;99319.81;5041088;28;20195;-83
2023/04/20 01:57:39;;;;;;;9.17;8.27;;;;;;;7.50;100.00;99314.50;5016337;28;20244;-83
2023/04/20 02:00:07;;;;;;;10.40;9.30;;;;;;;7.59;100.00;99310.59;5020998;28;20214;-83
2023/04/20 02:02:39;;;;;;;10.40;9.40;;;;;;;7.59;100.00;99309.75;5038959;28;20198;-83
2023/04/20 02:05:07;;;;;;;10.33;9.33;;;;;;;7.45;100.00;99322.28;5030337;28;20176;-82
2023/04/20 02:07:34;;;;;;;10.87;9.77;;;;;;;7.43;100.00;99317.16;5051088;28;20207;-83
2023/04/20 02:10:02;;;;;;;11.93;10.60;;;;;;;7.31;100.00;99308.16;5042548;28;20195;-84
2023/04/20 02:12:31;;;;;;;11.37;10.27;;;;;;;7.35;100.00;99321.88;5038049;28;20185;-83
2023/04/20 02:14:57;;;;;;;12.07;10.87;;;;;;;7.33;100.00;99318.59;5014282;28;20368;-83
2023/04/20 02:17:25;;;;;;;11.57;10.40;;;;;;;7.38;100.00;99316.94;5032471;28;20213;-83
2023/04/20 02:19:55;;;;;;;11.80;10.60;;;;;;;7.29;100.00;99323.53;5030192;28;20203;-84
2023/04/20 02:22:24;;;;;;;12.03;10.80;;;;;;;7.30;100.00;99319.84;5017105;28;20206;-84
2023/04/20 02:24:52;;;;;;;11.60;10.40;;;;;;;7.08;100.00;99318.41;5021766;28;20179;-83
2023/04/20 02:27:19;;;;;;;12.37;10.13;;;;;;;7.09;100.00;99309.41;5037350;28;20229;-84
2023/04/20 02:29:47;;;;;;;10.87;9.73;;;;;;;7.01;100.00;99305.06;5023695;28;20242;-81
2023/04/20 02:32:13;;;;;;;11.37;10.13;;;;;;;6.93;100.00;99299.97;5021614;28;20606;-82
2023/04/20 02:34:40;;;;;;;11.43;10.20;;;;;;;6.96;100.00;99306.72;5022839;28;20189;-82
2023/04/20 02:37:07;;;;;;;12.07;10.03;;;;;;;7.07;100.00;99309.59;5023966;28;20247;-81
2023/04/20 02:39:46;;;;;;;10.97;9.87;;;;;;;6.96;100.00;99307.53;5040752;28;20196;-85
2023/04/20 02:42:35;;;;;;;11.40;10.20;;;;;;;7.01;100.00;99310.41;5038341;28;20202;-84
2023/04/20 02:45:05;;;;;;;11.80;10.07;;;;;;;6.95;100.00;99300.56;5054425;28;20187;-84
2023/04/20 02:47:40;;;;;;;11.17;9.97;;;;;;;6.97;100.00;99303.03;5002049;28;20302;-83
2023/04/20 02:50:13;;;;;;;12.13;10.80;;;;;;;7.03;100.00;99307.53;4988825;28;20187;-84
2023/04/20 02:53:06;;;;;;;11.40;10.20;;;;;;;6.92;100.00;99303.63;4989282;28;20184;-85
2023/04/20 02:56:07;;;;;;;12.50;11.20;;;;;;;7.08;100.00;99307.75;5115345;23;20218;-84
2023/04/20 02:58:55;;;;;;;11.70;10.47;;;;;;;7.03;100.00;99307.53;4966482;28;20232;-83
2023/04/20 03:01:45;;;;;;;11.73;10.53;;;;;;;7.01;100.00;99309.59;4950414;28;20208;-81
2023/04/20 03:04:15;;;;;;;12.17;10.97;;;;;;;7.02;100.00;99320.03;4962125;28;20735;-81
2023/04/20 03:06:52;;;;;;;13.30;10.70;;;;;;;7.04;100.00;99317.19;4969566;28;20196;-80
2023/04/20 03:09:25;;;;;;;12.50;11.20;;;;;;;6.96;100.00;99314.69;4939325;28;20200;-81
2023/04/20 03:11:56;;;;;;;12.27;11.07;;;;;;;7.01;100.00;99304.25;4954015;28;20215;-81
2023/04/20 03:14:59;;;;;;;12.23;11.00;;;;;;;7.01;100.00;99310.41;4916772;29;20206;-81
2023/04/20 03:17:42;;;;;;;12.37;11.07;;;;;;;6.96;100.00;99296.88;4964495;28;20252;-81
2023/04/20 03:20:10;;;;;;;12.37;11.13;;;;;;;7.07;100.00;99304.28;4971060;28;20200;-80
2023/04/20 03:22:37;;;;;;;11.80;10.60;;;;;;;6.93;100.00;99301.81;4948397;28;20204;-81
2023/04/20 03:25:06;;;;;;;12.30;11.00;;;;;;;6.98;100.00;99310.81;4970930;28;20291;-81
2023/04/20 03:27:50;;;;;;;13.33;11.30;;;;;;;6.91;100.00;99306.50;4949398;28;20663;-80
2023/04/20 03:30:17;;;;;;;12.07;10.87;;;;;;;6.97;100.00;99308.34;4953224;28;20213;-78
2023/04/20 03:32:49;;;;;;;12.60;11.30;;;;;;;6.85;100.00;99310.81;4948631;28;20209;-83
2023/04/20 03:35:16;;;;;;;11.93;10.73;;;;;;;6.87;100.00;99313.25;4960213;28;20252;-80
2023/04/20 03:37:43;;;;;;;11.43;10.33;;;;;;;6.97;100.00;99311.84;4935200;28;20217;-80
2023/04/20 03:40:10;;;;;;;12.13;10.13;;;;;;;7.00;100.00;99305.28;4972417;28;20212;-81
2023/04/20 03:42:37;;;;;;;12.37;10.40;;;;;;;6.93;100.00;99312.44;4933815;28;20651;-81
2023/04/20 03:45:05;;;;;;;11.53;10.30;;;;;;;6.99;100.00;99312.47;4964659;28;20229;-82
2023/04/20 03:47:32;;;;;;;11.27;9.93;;;;;;;6.81;100.00;99312.22;4952381;28;20731;-80
2023/04/20 03:49:58;;;;;;;11.03;9.93;;;;;;;6.74;100.00;99307.91;4947133;28;20220;-82
2023/04/20 03:52:25;;;;;;;11.07;9.80;;;;;;;6.64;100.00;99308.31;4954859;28;20298;-81
2023/04/20 03:54:52;;;;;;;12.20;10.03;;;;;;;6.61;100.00;99314.06;4968420;28;20296;-81
2023/04/20 03:57:19;;;;;;;12.50;10.47;;;;;;;6.58;100.00;99327.75;4967353;28;20239;-81
2023/04/20 03:59:46;;;;;;;12.97;11.13;;;;;;;6.57;100.00;99326.13;4961903;28;20205;-82
2023/04/20 04:02:17;;;;;;;11.50;10.37;;;;;;;6.56;100.00;99327.13;4967120;28;20264;-81
2023/04/20 04:04:45;;;;;;;10.43;9.33;;;;;;;6.51;100.00;99313.59;4941248;28;20224;-80
2023/04/20 04:07:12;;;;;;;11.80;10.60;;;;;;;6.50;100.00;99325.28;4958330;28;20193;-81
2023/04/20 04:09:41;;;;;;;11.80;9.87;;;;;;;6.59;100.00;99324.06;4957948;28;20202;-82
2023/04/20 04:12:08;;;;;;;11.03;9.70;;;;;;;6.62;100.00;99321.03;4959547;28;20292;-82
2023/04/20 04:14:35;;;;;;;12.00;9.90;;;;;;;6.58;100.00;99323.25;4957896;28;20209;-81
2023/04/20 04:17:02;;;;;;;11.27;9.33;;;;;;;6.65;100.00;99320.59;4941588;28;20202;-81
2023/04/20 04:19:31;;;;;;;10.40;9.10;;;;;;;6.61;100.00;99314.88;4949415;28;20232;-80
2023/04/20 04:21:58;;;;;;;10.40;9.20;;;;;;;6.62;100.00;99321.81;4940767;28;20201;-81
2023/04/20 04:24:25;;;;;;;11.60;9.63;;;;;;;6.56;100.00;99319.16;4942491;28;20207;-81
2023/04/20 04:27:04;;;;;;;11.23;9.90;;;;;;;6.67;100.00;99317.75;4952347;28;20201;-80
2023/04/20 04:29:37;;;;;;;10.77;9.67;;;;;;;6.70;100.00;99322.66;4924979;28;20197;-81
2023/04/20 04:32:08;;;;;;;10.50;9.30;;;;;;;6.71;100.00;99329.63;4975153;28;20196;-81
2023/04/20 04:34:36;;;;;;;10.47;9.13;;;;;;;6.73;100.00;99332.91;4937357;28;20193;-80
2023/04/20 04:37:03;;;;;;;10.87;9.57;;;;;;;6.79;100.00;99332.91;4939915;28;20203;-81
2023/04/20 04:39:45;;;;;;;10.80;9.70;;;;;;;6.77;100.00;99340.28;4957595;28;20213;-81
2023/04/20 04:42:18;;;;;;;10.90;9.70;;;;;;;6.77;100.00;99340.28;4943235;28;20206;-81
2023/04/20 04:44:45;;;;;;;11.13;10.03;;;;;;;6.83;100.00;99344.81;4942050;28;20319;-80
2023/04/20 04:47:20;;;;;;;10.93;9.60;;;;;;;6.87;100.00;99340.72;4936091;28;20232;-82
2023/04/20 04:49:48;;;;;;;11.50;9.60;;;;;;;6.85;100.00;99340.09;4934423;28;20217;-80
2023/04/20 04:52:15;;;;;;;10.93;9.83;;;;;;;6.96;100.00;99344.00;4955161;28;20194;-81
2023/04/20 04:54:41;;;;;;;11.03;9.93;;;;;;;7.05;100.00;99343.59;4942687;28;20201;-81
2023/04/20 04:57:08;;;;;;;11.53;10.20;;;;;;;7.07;100.00;99344.22;4924339;28;20586;-80
2023/04/20 04:59:35;;;;;;;12.10;10.90;;;;;;;7.23;100.00;99350.19;4938952;28;20217;-80
2023/04/20 05:02:01;;;;;;;12.40;10.53;;;;;;;7.22;100.00;99345.88;4956553;28;20201;-81
2023/04/20 05:04:28;;;;;;;12.27;10.97;;;;;;;7.32;100.00;99352.44;4923132;28;20288;-80
2023/04/20 05:06:55;;;;;;;11.57;10.30;;;;;;;7.38;100.00;99354.25;4947682;28;20210;-82
2023/04/20 05:09:22;;;;;;;12.13;10.83;;;;;;;7.49;100.00;99351.00;4943080;28;20200;-82
2023/04/20 05:11:49;;;;;;;13.37;11.47;;;;;;;7.48;100.00;99351.19;4947628;28;20294;-81
2023/04/20 05:14:15;;;;;;;12.03;10.83;;;;;;;7.46;100.00;99351.41;4959923;28;20287;-80
2023/04/20 05:16:42;;;;;;;12.70;11.40;;;;;;;7.64;100.00;99357.94;4940579;28;20197;-81
2023/04/20 05:19:09;;;;;;;12.50;11.20;;;;;;;7.74;100.00;99351.19;4946427;28;20291;-81
2023/04/20 05:21:38;;;;;;;13.00;11.70;;;;;;;7.88;100.00;99352.78;4956814;28;20671;-80
2023/04/20 05:24:05;;;;;;;14.03;12.60;;;;;;;8.02;100.00;99364.25;4958173;28;20200;-81
2023/04/20 05:26:32;;;;;;;13.03;11.73;;;;;;;8.12;100.00;99364.59;4936051;28;20208;-81
2023/04/20 05:28:58;;;;;;;13.37;12.00;;;;;;;8.21;100.00;99370.53;4928413;28;20308;-81
2023/04/20 05:31:25;;;;;;;14.80;13.30;;;;;;;8.24;100.00;99367.44;4936422;28;20251;-82
2023/04/20 05:33:52;;;;;;;14.83;13.23;;;;;;;8.36;100.00;99366.59;4947543;28;20205;-81
2023/04/20 05:36:19;;;;;;;15.37;13.77;;;;;;;8.37;100.00;99362.09;4949254;28;20369;-81
2023/04/20 05:38:46;;;;;;;15.93;14.33;;;;;;;8.17;100.00;99363.97;4964197;28;20258;-81
2023/04/20 05:41:13;;;;;;;16.50;14.77;;;;;;;8.38;100.00;99361.06;4964659;28;20221;-81
2023/04/20 05:43:39;;;;;;;16.87;15.03;;;;;;;8.33;100.00;99359.03;4938240;28;20699;-82
2023/04/20 05:46:06;;;;;;;17.43;14.93;;;;;;;8.50;100.00;99370.03;4941607;28;20189;-81
2023/04/20 05:48:33;;;;;;;17.87;14.97;;;;;;;8.36;100.00;99365.78;4956849;28;20665;-80
2023/04/20 05:50:59;;;;;;;17.27;15.47;;;;;;;8.50;100.00;99364.69;4922812;28;20209;-81
2023/04/20 05:53:26;;;;;;;16.53;14.83;;;;;;;8.55;100.00;99362.22;4942194;28;20197;-82
2023/04/20 05:55:53;;;;;;;17.43;15.60;;;;;;;8.19;100.00;99372.59;4920200;28;20204;-80
2023/04/20 05:58:20;;;;;;;17.30;14.87;;;;;;;8.42;100.00;99367.63;4941733;28;20240;-82
2023/04/20 06:00:46;;;;;;;17.03;15.23;;;;;;;8.54;100.00;99373.91;4941440;28;20292;-82
2023/04/20 06:03:13;;;;;;;17.70;15.80;;;;;;;8.46;100.00;99371.50;4942154;28;20271;-81
2023/04/20 06:05:40;;;;;;;18.33;16.13;;;;;;;8.36;100.00;99371.13;4956156;28;20658;-82
2023/04/20 06:08:07;;;;;;;17.20;15.50;;;;;;;8.17;100.00;99380.81;4946725;28;20204;-82
2023/04/20 06:10:34;;;;;;;17.40;15.60;;;;;;;8.26;100.00;99370.72;4943182;28;20205;-80
2023/04/20 06:13:00;;;;;;;17.03;15.20;;;;;;;8.46;100.00;99374.16;4940741;28;20674;-81
2023/04/20 06:15:27;;;;;;;18.20;16.30;;;;;;;8.59;100.00;99371.44;4941296;28;20199;-81
2023/04/20 06:17:54;;;;;;;18.30;16.47;;;;;;;8.73;100.00;99374.84;4956376;28;20283;-82
2023/04/20 06:20:20;;;;;;;16.70;14.90;;;;;;;8.98;100.00;99372.25;4941351;28;20322;-81
2023/04/20 06:22:47;;;;;;;16.83;15.03;;;;;;;8.72;100.00;99375.91;4955974;28;20207;-80
2023/04/20 06:25:14;;;;;;;17.23;15.43;;;;;;;8.90;100.00;99380.53;4938730;28;20217;-81
2023/04/20 06:27:41;;;;;;;16.87;15.07;;;;;;;9.10;100.00;99376.69;4940723;28;20206;-81
2023/04/20 06:30:08;;;;;;;17.20;15.43;;;;;;;9.05;100.00;99381.06;4937794;28;20673;-81
2023/04/20 06:32:36;;;;;;;17.20;15.40;;;;;;;9.15;100.00;99370.69;4935775;28;20271;-82
2023/04/20 06:35:06;;;;;;;17.90;16.10;;;;;;;9.27;100.00;99377.81;4955325;28;20193;-82
2023/04/20 06:37:36;;;;;;;17.77;15.97;;;;;;;9.44;100.00;99371.91;4928850;28;20228;-80
2023/04/20 06:40:07;;;;;;;17.60;15.77;;;;;;;9.55;100.00;99373.88;4942970;28;20220;-81
2023/04/20 06:42:35;;;;;;;18.03;16.23;;;;;;;9.76;100.00;99359.25;4943200;28;20296;-81
2023/04/20 06:45:05;;;;;;;17.80;15.67;;;;;;;9.93;100.00;99369.19;4955952;28;20251;-81
2023/04/20 06:47:32;;;;;;;17.10;15.30;;;;;;;9.98;100.00;99366.69;4925740;28;20211;-82
2023/04/20 06:50:00;;;;;;;18.07;16.17;;;;;;;10.08;100.00;99369.63;4940193;28;20195;-82
2023/04/20 06:52:29;;;;;;;16.80;15.10;;;;;;;10.20;100.00;99367.09;4938950;28;20196;-80
2023/04/20 06:54:58;;;;;;;17.90;15.97;;;;;;;10.04;100.00;99370.31;4929604;28;20208;-81
2023/04/20 06:57:27;;;;;;;17.87;16.07;;;;;;;10.35;100.00;99374.75;4947249;28;20716;-81
2023/04/20 06:59:54;;;;;;;17.33;15.63;;;;;;;10.44;100.00;99374.22;4958672;28;20308;-82
2023/04/20 07:02:20;;;;;;;18.07;16.27;;;;;;;10.56;100.00;99372.41;4941054;28;20190;-84
2023/04/20 07:04:47;;;;;;;18.03;16.23;;;;;;;10.65;100.00;99372.91;4939810;28;20244;-81
2023/04/20 07:07:14;;;;;;;18.00;16.20;;;;;;;10.58;100.00;99369.50;4959335;28;20200;-80
2023/04/20 07:09:41;;;;;;;18.53;16.57;;;;;;;10.84;100.00;99379.03;4925600;29;20204;-81
2023/04/20 07:12:08;;;;;;;19.47;16.47;;;;;;;10.58;100.00;99372.19;4956315;28;20196;-81
2023/04/20 07:14:34;;;;;;;18.00;15.47;;;;;;;10.46;100.00;99382.00;4943603;28;20664;-81
2023/04/20 07:17:01;;;;;;;17.37;15.67;;;;;;;10.92;100.00;99382.22;4955705;28;20201;-81
2023/04/20 07:19:28;;;;;;;17.10;15.37;;;;;;;10.70;100.00;99383.75;4937543;28;20323;-83
2023/04/20 07:21:55;;;;;;;18.23;16.37;;;;;;;10.84;100.00;99387.09;4941333;28;20329;-81
2023/04/20 07:24:21;;;;;;;17.63;15.93;;;;;;;10.94;100.00;99384.69;4943156;28;20284;-81
2023/04/20 07:26:48;;;;;;;17.67;15.87;;;;;;;11.11;100.00;99388.34;4956411;28;20200;-81
2023/04/20 07:29:17;;;;;;;18.37;16.47;;;;;;;11.19;100.00;99387.22;4956399;28;20197;-80
2023/04/20 07:31:44;;;;;;;18.87;16.93;;;;;;;11.12;100.00;99392.66;4938269;28;20216;-81
2023/04/20 07:34:11;;;;;;;17.80;16.00;;;;;;;10.87;100.00;99389.34;4928179;28;20196;-80
2023/04/20 07:36:38;;;;;;;17.80;16.00;;;;;;;11.26;100.00;99386.06;4945913;28;20200;-81
2023/04/20 07:39:05;;;;;;;19.10;17.03;;;;;;;11.38;100.00;99389.56;4961307;28;20239;-80
2023/04/20 07:41:31;;;;;;;18.57;16.50;;;;;;;11.64;100.00;99391.03;4964885;28;20196;-81
2023/04/20 07:43:58;;;;;;;18.23;16.20;;;;;;;11.76;100.00;99401.78;4959879;28;20718;-81
2023/04/20 07:46:27;;;;;;;19.67;17.67;;;;;;;11.73;100.00;99392.34;4948193;28;20283;-83
2023/04/20 07:48:53;;;;;;;19.53;17.47;;;;;;;11.95;100.00;99389.88;4928511;28;20593;-82
2023/04/20 07:51:20;;;;;;;18.00;16.23;;;;;;;12.12;100.00;99390.81;4966148;28;20232;-81
2023/04/20 07:53:47;;;;;;;19.37;17.40;;;;;;;12.41;100.00;99396.28;4933360;28;20661;-80
2023/04/20 07:56:14;;;;;;;19.07;17.07;;;;;;;12.18;100.00;99391.72;4934571;28;20219;-81
2023/04/20 07:58:40;;;;;;;18.83;16.93;;;;;;;12.24;100.00;99399.69;4926025;28;20713;-80
2023/04/20 08:01:07;;;;;;;19.63;17.53;;;;;;;12.51;100.00;99397.28;4958460;28;20206;-81
2023/04/20 08:03:34;;;;;;;18.93;16.97;;;;;;;12.01;100.00;99391.63;4943951;28;20686;-82
2023/04/20 08:06:02;;;;;;;18.27;16.37;;;;;;;12.65;100.00;99392.44;4964706;28;20200;-81
2023/04/20 08:08:29;;;;;;;18.23;16.40;;;;;;;12.90;100.00;99394.81;4968550;28;20209;-82
2023/04/20 08:10:57;;;;;;;18.13;16.17;;;;;;;12.83;100.00;99397.63;4930383;28;20208;-80
2023/04/20 08:13:24;;;;;;;17.90;16.10;;;;;;;12.97;100.00;99392.81;4944057;28;20326;-82
2023/04/20 08:15:51;;;;;;;18.57;16.67;;;;;;;13.36;100.00;99400.00;4950060;28;20196;-81
2023/04/20 08:18:18;;;;;;;18.13;16.27;;;;;;;13.68;100.00;99395.69;4966076;28;20197;-81
2023/04/20 08:20:46;;;;;;;17.77;15.97;;;;;;;13.78;100.00;99389.66;4935994;28;20216;-80
2023/04/20 08:23:13;;;;;;;17.87;16.07;;;;;;;13.89;100.00;99385.25;4950271;28;20197;-81
2023/04/20 08:25:40;;;;;;;17.80;15.90;;;;;;;14.58;100.00;99385.66;4963023;28;20200;-80
2023/04/20 08:28:07;;;;;;;17.70;16.00;;;;;;;14.06;100.00;99378.75;4961169;28;20312;-81
2023/04/20 08:30:41;;;;;;;18.23;16.40;;;;;;;13.18;100.00;99379.53;4952704;28;20260;-81
2023/04/20 08:33:07;;;;;;;18.40;16.50;;;;;;;14.58;100.00;99389.16;4962651;28;20205;-82
2023/04/20 08:35:34;;;;;;;18.23;16.53;;;;;;;14.11;100.00;99388.78;4951637;28;20197;-82
2023/04/20 08:38:03;;;;;;;18.17;16.47;;;;;;;14.67;100.00;99389.53;4950745;28;20200;-81
2023/04/20 08:40:30;;;;;;;16.87;15.17;;;;;;;14.87;100.00;99381.69;4954283;28;20225;-81
2023/04/20 08:43:00;;;;;;;17.73;15.93;;;;;;;15.27;98.56;99379.38;4946127;28;20489;-81
2023/04/20 08:45:27;;;;;;;15.90;14.40;;;;;;;16.07;96.26;99388.41;4939242;28;20819;-81
2023/04/20 08:47:58;;;;;;;18.30;16.40;;;;;;;16.28;94.03;99390.16;4955128;28;20212;-82
2023/04/20 08:50:25;;;;;;;18.60;16.70;;;;;;;16.35;91.68;99384.50;4936486;28;20218;-81
2023/04/20 08:52:52;;;;;;;17.60;15.80;;;;;;;16.36;91.45;99381.56;4939280;28;20222;-81
2023/04/20 08:55:18;;;;;;;17.47;15.73;;;;;;;16.28;88.73;99382.06;4938951;28;20202;-81
2023/04/20 08:57:47;;;;;;;16.90;15.30;;;;;;;16.42;88.34;99382.38;4936473;29;20263;-82
2023/04/20 09:00:15;;;;;;;16.97;15.27;;;;;;;16.78;87.53;99383.38;4939112;28;20240;-81
2023/04/20 09:02:53;;;;;;;17.83;16.13;;;;;;;16.04;86.41;99383.53;4941211;29;20673;-81
2023/04/20 09:05:28;;;;;;;18.87;16.90;;;;;;;15.49;90.81;99390.09;4968596;28;20279;-83
2023/04/20 09:07:57;;;;;;;18.67;16.77;;;;;;;15.76;88.89;99379.28;4947003;28;20291;-83
2023/04/20 09:10:26;;;;;;;18.67;16.83;;;;;;;15.03;90.93;99379.94;4927105;28;20195;-82
2023/04/20 09:12:53;;;;;;;18.70;16.80;;;;;;;14.77;94.19;99387.78;4928218;28;20388;-81
2023/04/20 09:15:27;;;;;;;19.37;17.40;;;;;;;15.19;91.25;99377.16;4954456;28;20214;-82
2023/04/20 09:17:54;;;;;;;19.93;18.03;;;;;;;15.00;94.00;99378.59;4954570;28;20208;-82
2023/04/20 09:20:32;;;;;;;19.50;17.53;;;;;;;14.90;93.19;99368.50;4936772;28;20215;-81
2023/04/20 09:23:12;;;;;;;20.27;18.27;;;;;;;14.91;93.90;99364.75;4920470;28;20776;-82
2023/04/20 09:25:41;;;;;;;19.67;17.70;;;;;;;14.75;94.09;99362.94;4949860;28;20227;-81
2023/04/20 09:28:08;;;;;;;18.93;17.13;;;;;;;14.70;94.30;99362.88;4943490;28;20297;-82
2023/04/20 09:30:39;;;;;;;19.30;17.30;;;;;;;14.57;96.36;99365.97;4949166;28;20294;-81
2023/04/20 09:33:07;;;;;;;18.33;16.53;;;;;;;14.45;95.57;99363.41;4964083;28;20197;-81
2023/04/20 09:35:35;;;;;;;18.07;16.27;;;;;;;14.66;97.08;99358.25;4954194;28;20238;-81
2023/04/20 09:38:01;;;;;;;19.07;17.13;;;;;;;14.61;96.03;99361.69;4937914;28;20215;-82
2023/04/20 09:40:28;;;;;;;18.77;16.80;;;;;;;14.25;99.44;99365.81;4954869;28;20224;-81
2023/04/20 09:42:58;;;;;;;18.10;16.30;;;;;;;14.56;99.94;99358.94;4936502;28;20208;-82
2023/04/20 09:45:25;;;;;;;19.27;17.47;;;;;;;14.54;99.51;99359.22;4936181;29;20258;-81
2023/04/20 09:47:51;;;;;;;19.53;17.53;;;;;;;14.58;100.00;99358.69;4953522;28;20194;-81
2023/04/20 09:50:19;;;;;;;19.63;17.77;;;;;;;14.73;100.00;99359.69;4953443;28;20219;-82
2023/04/20 09:52:59;;;;;;;19.37;17.50;;;;;;;14.07;100.00;99358.84;4954089;28;20206;-81
2023/04/20 09:55:26;;;;;;;18.97;17.07;;;;;;;14.27;100.00;99358.31;4935990;28;20187;-81
2023/04/20 09:57:53;;;;;;;19.13;17.30;;;;;;;14.32;100.00;99355.69;4951956;28;20240;-81
2023/04/20 10:00:20;;;;;;;21.13;19.00;;;;;;;13.25;100.00;99349.75;4919189;28;20309;-81
2023/04/20 10:02:47;;;;;;;19.27;17.43;;;;;;;14.08;100.00;99347.00;4946628;28;20262;-81
2023/04/20 10:05:15;;;;;;;19.83;17.83;;;;;;;13.64;100.00;99353.34;4936231;28;20206;-81
2023/04/20 10:07:42;;;;;;;20.77;18.57;;;;;;;13.24;100.00;99342.75;4924830;28;20209;-81
2023/04/20 10:10:14;;;;;;;20.70;18.60;;;;;;;13.22;100.00;99334.09;4956016;28;20670;-81
2023/04/20 10:12:49;;;;;;;20.40;18.37;;;;;;;14.13;100.00;99346.25;4926978;28;20241;-80
2023/04/20 10:15:16;;;;;;;20.87;18.87;;;;;;;14.58;100.00;99342.53;4955902;28;20689;-81
2023/04/20 10:17:43;;;;;;;19.00;17.03;;;;;;;14.98;100.00;99338.38;4924751;28;20204;-82
2023/04/20 10:20:24;;;;;;;18.70;16.90;;;;;;;15.39;100.00;99341.44;4954071;28;20222;-81
2023/04/20 10:22:51;;;;;;;19.03;17.13;;;;;;;15.91;100.00;99343.47;4938806;28;20197;-80
2023/04/20 10:25:23;;;;;;;20.50;18.60;;;;;;;16.16;100.00;99341.72;4948934;28;20221;-81
2023/04/20 10:27:54;;;;;;;19.13;17.33;;;;;;;16.22;100.00;99342.56;4953104;28;20206;-81
2023/04/20 10:30:22;;;;;;;19.07;17.17;;;;;;;16.41;100.00;99341.03;4934725;28;20241;-81
2023/04/20 10:32:49;;;;;;;18.97;17.17;;;;;;;15.96;100.00;99333.47;4943625;28;20188;-80
2023/04/20 10:35:16;;;;;;;19.07;17.20;;;;;;;15.83;100.00;99328.53;4926716;28;20241;-81
2023/04/20 10:37:48;;;;;;;19.73;17.80;;;;;;;16.10;100.00;99326.53;4930464;28;20200;-81
2023/04/20 10:40:15;;;;;;;19.50;17.50;;;;;;;16.76;100.00;99320.59;4919387;28;20224;-81
2023/04/20 10:42:43;;;;;;;18.87;16.97;;;;;;;16.26;100.00;99314.72;4956423;28;20195;-81
2023/04/20 10:45:11;;;;;;;17.10;15.50;;;;;;;16.75;97.19;99311.66;4952729;28;20300;-81
2023/04/20 10:47:39;;;;;;;17.77;16.17;;;;;;;17.09;98.73;99311.97;4941889;28;20217;-81
2023/04/20 10:50:11;;;;;;;18.73;16.93;;;;;;;17.51;97.20;99300.88;4955085;28;20275;-80
2023/04/20 10:52:39;;;;;;;18.00;16.20;;;;;;;17.90;95.37;99301.13;4948070;28;20213;-81
2023/04/20 10:55:20;;;;;;;17.90;16.20;;;;;;;18.08;93.64;99294.28;4967989;28;20284;-81
2023/04/20 10:57:48;;;;;;;15.43;14.03;;;;;;;18.10;90.71;99294.84;4948675;28;20730;-81
2023/04/20 11:00:20;;;;;;;14.70;13.40;;;;;;;18.25;89.76;99297.47;4952446;28;20272;-81
2023/04/20 11:02:52;;;;;;;16.53;15.03;;;;;;;18.29;89.15;99287.72;4937040;29;20244;-80
2023/04/20 11:05:22;;;;;;;20.07;18.27;;;;;;;17.77;89.72;99285.44;4952645;28;20204;-81
2023/04/20 11:07:59;;;;;;;19.23;17.47;;;;;;;17.51;92.85;99285.44;4938572;28;20200;-81
2023/04/20 11:10:41;;;;;;;17.03;15.43;;;;;;;18.00;94.05;99290.25;4941548;28;20201;-81
2023/04/20 11:13:24;;;;;;;18.07;16.47;;;;;;;18.19;91.46;99279.63;4943689;28;20200;-81
2023/04/20 11:15:51;;;;;;;18.20;16.50;;;;;;;18.27;88.37;99279.84;4949696;28;20256;-81
2023/04/20 11:18:18;;;;;;;18.33;16.53;;;;;;;18.10;89.01;99271.25;4953508;28;20309;-81
2023/04/20 11:20:51;;;;;;;18.67;16.87;;;;;;;18.46;88.85;99275.41;4956377;28;20232;-81
2023/04/20 11:23:20;;;;;;;18.17;16.37;;;;;;;18.53;88.84;99275.13;4927005;28;20202;-81
2023/04/20 11:25:56;;;;;;;15.67;14.27;;;;;;;18.49;86.63;99272.13;4944112;28;20199;-81
2023/04/20 11:28:24;;;;;;;13.57;12.27;;;;;;;18.68;86.00;99274.22;4943682;28;20205;-81